Time;durP1;ratioP1;P1;durP2;ratioP2;P2;SDS_P1;SDS_P2;PMS_P1;PMS_P2;Temp;Humidity;BMP_temperature;BMP_pressure;BME280_temperature;BME280_humidity;BME280_pressure;Samples;Min_cycle;Max_cycle;Signal;HPM_P1;HPM_P2
2021/07/16 00:02:05;;;;;;;6.00;2.50;;;;;;;17.34;94.27;99382.63;2000094;78;23235;-75
2021/07/16 00:05:10;;;;;;;2.84;2.44;;;;;;;17.35;94.14;99372.97;1997069;81;20170;-75
2021/07/16 00:08:13;;;;;;;5.30;2.25;;;;;;;17.37;94.08;99377.28;1997934;81;21203;-75
2021/07/16 00:11:26;;;;;;;5.66;2.65;;;;;;;17.39;94.03;99374.59;1997409;81;20214;-75
2021/07/16 00:14:32;;;;;;;5.54;2.41;;;;;;;17.40;93.64;99373.69;1997272;81;20204;-75
2021/07/16 00:17:36;;;;;;;9.79;3.10;;;;;;;17.42;93.63;99375.38;1996334;81;20791;-75
2021/07/16 00:29:13;;;;;;;2.69;2.49;;;;;;;17.28;93.75;99380.19;2000259;81;20298;-75
2021/07/16 00:32:32;;;;;;;4.40;2.90;;;;;;;17.27;93.47;99385.50;1997381;78;20548;-75
2021/07/16 00:35:52;;;;;;;4.11;3.04;;;;;;;17.25;93.37;99387.31;1995648;81;20805;-75
2021/07/16 00:48:14;;;;;;;5.75;2.94;;;;;;;17.13;93.51;99375.44;1996094;79;23044;-75
2021/07/16 00:51:33;;;;;;;4.22;2.51;;;;;;;17.02;93.67;99378.38;1997337;81;20203;-75
2021/07/16 00:54:38;;;;;;;3.76;2.55;;;;;;;16.94;93.69;99372.53;1994356;81;20208;-75
2021/07/16 00:57:42;;;;;;;5.45;2.38;;;;;;;16.87;93.52;99382.31;1996736;81;20183;-75
2021/07/16 01:00:45;;;;;;;4.25;2.47;;;;;;;16.80;93.79;99379.94;1997102;81;20174;-75
2021/07/16 01:03:50;;;;;;;5.65;2.31;;;;;;;16.75;94.09;99374.84;1996568;78;20714;-75
2021/07/16 01:06:56;;;;;;;4.41;2.35;;;;;;;16.73;94.10;99373.16;1998003;81;20252;-75
2021/07/16 01:10:01;;;;;;;2.96;2.51;;;;;;;16.65;93.87;99369.88;1996352;81;20175;-75
2021/07/16 01:13:13;;;;;;;10.19;2.22;;;;;;;16.58;93.76;99379.69;1996971;81;20170;-75
2021/07/16 01:16:16;;;;;;;4.32;2.10;;;;;;;16.51;93.80;99381.59;1995736;81;27951;-75
2021/07/16 01:23:46;;;;;;;7.49;2.64;;;;;;;16.40;94.02;99385.44;1996860;81;20355;-75
2021/07/16 01:26:49;;;;;;;8.75;2.29;;;;;;;16.36;94.45;99386.44;1997502;81;20281;-75
2021/07/16 01:30:29;;;;;;;7.07;2.42;;;;;;;16.35;94.47;99377.72;1997218;81;20377;-75
2021/07/16 01:33:46;;;;;;;5.46;2.34;;;;;;;16.32;94.62;99393.50;1987194;81;20293;-76
2021/07/16 01:36:57;;;;;;;5.32;2.25;;;;;;;16.28;94.40;99395.38;1987154;81;20372;-75
2021/07/16 01:40:00;;;;;;;3.38;2.10;;;;;;;16.21;94.04;99399.06;1987653;81;20241;-74
2021/07/16 01:43:06;;;;;;;4.06;1.98;;;;;;;16.18;94.41;99396.53;1983012;81;20183;-75
2021/07/16 01:46:09;;;;;;;8.16;2.78;;;;;;;16.16;94.58;99406.19;1990030;78;26829;-74
2021/07/16 01:49:13;;;;;;;10.02;2.74;;;;;;;16.17;94.59;99404.44;1993129;81;20182;-74
2021/07/16 01:52:18;;;;;;;7.43;3.40;;;;;;;16.15;94.62;99400.97;1996918;81;20190;-74
2021/07/16 01:55:23;;;;;;;6.55;2.26;;;;;;;16.14;94.73;99400.09;1997168;81;20200;-74
2021/07/16 01:58:26;;;;;;;4.65;1.98;;;;;;;16.12;95.14;99401.91;1997281;81;20194;-74
2021/07/16 02:01:29;;;;;;;3.61;2.33;;;;;;;16.11;95.43;99400.19;1996654;81;20696;-75
2021/07/16 02:04:33;;;;;;;2.28;2.11;;;;;;;16.17;95.62;99396.56;1998086;78;21899;-75
2021/07/16 02:07:37;;;;;;;2.99;2.49;;;;;;;16.18;95.64;99393.06;1998299;81;20178;-75
2021/07/16 02:10:47;;;;;;;3.99;2.17;;;;;;;16.16;95.33;99398.34;1998449;81;20471;-75
2021/07/16 02:13:55;;;;;;;6.04;2.51;;;;;;;16.14;95.47;99405.34;1998538;81;20624;-74
2021/07/16 02:17:00;;;;;;;8.04;3.13;;;;;;;16.12;95.50;99409.78;1997076;78;20461;-74
2021/07/16 02:24:22;;;;;;;6.46;2.39;;;;;;;16.12;95.39;99420.25;1998819;81;20236;-74
2021/07/16 02:27:25;;;;;;;6.54;2.03;;;;;;;16.07;95.35;99426.53;1997947;81;20179;-75
2021/07/16 02:30:32;;;;;;;5.50;2.50;;;;;;;16.05;95.58;99420.47;1997582;79;21542;-74
2021/07/16 02:33:35;;;;;;;6.76;2.76;;;;;;;16.08;95.74;99409.91;1998135;81;20356;-75
2021/07/16 02:37:14;;;;;;;5.59;2.29;;;;;;;16.11;95.78;99412.44;1994443;81;20797;-75
2021/07/16 02:40:26;;;;;;;6.50;2.55;;;;;;;16.08;95.57;99402.91;1993755;81;20187;-75
2021/07/16 02:43:30;;;;;;;4.84;2.40;;;;;;;16.09;95.52;99414.25;1993365;81;20203;-75
2021/07/16 02:46:47;;;;;;;4.72;2.62;;;;;;;16.09;95.63;99419.47;1992023;78;20296;-75
2021/07/16 02:49:50;;;;;;;5.01;2.22;;;;;;;16.09;95.97;99409.00;1993819;81;20197;-75
2021/07/16 02:52:56;;;;;;;5.38;2.13;;;;;;;16.08;95.93;99418.63;1996557;81;20190;-74
2021/07/16 02:55:59;;;;;;;7.14;2.15;;;;;;;16.07;95.90;99419.53;1998077;81;20166;-75
2021/07/16 02:59:02;;;;;;;5.16;2.11;;;;;;;16.08;95.88;99415.13;1998545;81;20489;-75
2021/07/16 03:02:08;;;;;;;4.72;2.21;;;;;;;16.07;95.80;99416.91;1997215;79;20279;-74
2021/07/16 03:05:17;;;;;;;4.40;2.00;;;;;;;16.04;95.78;99419.59;1997650;81;20352;-74
2021/07/16 03:08:23;;;;;;;2.05;1.89;;;;;;;16.02;95.82;99418.78;1997337;81;20602;-74
2021/07/16 03:11:26;;;;;;;7.34;2.36;;;;;;;16.03;95.72;99430.97;1997788;81;20787;-75
2021/07/16 03:14:29;;;;;;;6.28;2.51;;;;;;;16.00;95.55;99434.53;1993894;81;20721;-75
2021/07/16 03:17:32;;;;;;;3.90;2.24;;;;;;;15.97;95.30;99434.59;1996533;78;20249;-75
2021/07/16 03:20:47;;;;;;;5.94;2.46;;;;;;;15.92;95.11;99433.00;1997901;81;20607;-75
2021/07/16 03:23:50;;;;;;;4.53;2.21;;;;;;;15.85;94.84;99436.69;1993684;81;20178;-75
2021/07/16 03:26:53;;;;;;;6.61;2.36;;;;;;;15.81;95.05;99430.69;1998045;81;20354;-75
2021/07/16 03:29:56;;;;;;;5.85;2.34;;;;;;;15.78;95.02;99422.00;1997468;81;20688;-75
2021/07/16 03:33:00;;;;;;;4.53;2.70;;;;;;;15.71;95.02;99429.16;1998017;78;20349;-75
2021/07/16 03:36:13;;;;;;;4.14;2.65;;;;;;;15.66;95.09;99429.28;1997649;81;20174;-75
2021/07/16 03:39:16;;;;;;;5.54;2.69;;;;;;;15.66;95.25;99431.91;1997416;81;20201;-75
2021/07/16 03:42:19;;;;;;;7.44;2.50;;;;;;;15.64;95.45;99430.22;1997381;81;20976;-76
2021/07/16 03:45:28;;;;;;;5.06;2.27;;;;;;;15.62;95.48;99429.41;1996937;78;21510;-76
2021/07/16 03:48:32;;;;;;;3.96;2.44;;;;;;;15.59;95.61;99416.38;1997820;81;20609;-76
2021/07/16 03:51:36;;;;;;;6.32;2.28;;;;;;;15.59;95.75;99421.59;1997365;81;20575;-75
2021/07/16 03:54:40;;;;;;;5.26;2.49;;;;;;;15.58;95.69;99420.72;1998001;81;20175;-75
2021/07/16 03:57:46;;;;;;;4.14;2.38;;;;;;;15.57;95.71;99420.75;1996937;81;20226;-75
2021/07/16 04:00:50;;;;;;;5.76;2.26;;;;;;;15.56;95.72;99422.50;1997554;81;20174;-75
2021/07/16 04:03:53;;;;;;;9.07;2.33;;;;;;;15.55;95.58;99433.88;1997040;78;21595;-75
2021/07/16 04:06:58;;;;;;;5.15;2.21;;;;;;;15.55;95.48;99436.50;1994066;81;20319;-75
2021/07/16 04:10:03;;;;;;;7.72;2.61;;;;;;;15.51;95.48;99434.84;1993563;81;20178;-76
2021/07/16 04:13:09;;;;;;;6.84;3.04;;;;;;;15.52;95.66;99443.56;1997606;81;20381;-75
2021/07/16 04:16:12;;;;;;;5.41;3.85;;;;;;;15.54;95.88;99442.63;1997232;78;22022;-75
2021/07/16 04:19:34;;;;;;;8.13;3.88;;;;;;;15.56;95.88;99439.97;1997681;81;20196;-76
2021/07/16 04:23:04;;;;;;;8.56;2.91;;;;;;;15.54;95.90;99447.88;1997031;81;20300;-75
2021/07/16 04:26:08;;;;;;;6.35;2.95;;;;;;;15.58;95.95;99457.34;1997503;81;21024;-76
2021/07/16 04:29:11;;;;;;;10.66;3.63;;;;;;;15.59;95.87;99456.50;1997381;81;20162;-75
2021/07/16 04:32:14;;;;;;;8.26;3.46;;;;;;;15.61;95.91;99467.78;1996728;78;24691;-76
2021/07/16 04:35:18;;;;;;;8.56;3.33;;;;;;;15.63;96.09;99471.25;1997028;81;20199;-76
2021/07/16 04:38:22;;;;;;;5.24;3.16;;;;;;;15.66;96.09;99468.56;1997927;81;20818;-75
2021/07/16 04:41:25;;;;;;;8.49;3.74;;;;;;;15.70;96.03;99479.81;1997361;81;20183;-75
2021/07/16 04:44:30;;;;;;;4.75;3.58;;;;;;;15.75;96.07;99475.31;1997460;81;20206;-75
2021/07/16 04:47:34;;;;;;;7.31;4.86;;;;;;;15.77;96.17;99476.13;1996827;81;20170;-76
2021/07/16 04:50:38;;;;;;;7.13;5.00;;;;;;;15.82;96.55;99473.44;1997165;81;20789;-75
2021/07/16 04:53:44;;;;;;;9.55;4.93;;;;;;;15.88;96.69;99475.88;1997593;81;20186;-75
2021/07/16 04:56:48;;;;;;;7.53;5.00;;;;;;;15.91;96.77;99475.81;1998102;81;20158;-74
2021/07/16 04:59:51;;;;;;;7.03;5.31;;;;;;;15.96;96.78;99482.63;1997544;81;20216;-75
2021/07/16 05:02:57;;;;;;;8.63;6.26;;;;;;;16.04;96.83;99481.59;1996511;78;26579;-75
2021/07/16 05:06:00;;;;;;;9.38;5.54;;;;;;;16.06;96.82;99483.28;1996769;81;20170;-75
2021/07/16 05:09:04;;;;;;;4.80;4.43;;;;;;;16.12;96.86;99485.75;1997713;81;20318;-75
2021/07/16 05:12:08;;;;;;;6.86;4.41;;;;;;;16.20;96.70;99475.94;1997888;81;20192;-75
2021/07/16 05:15:12;;;;;;;9.71;4.89;;;;;;;16.28;96.58;99478.34;1996154;81;20182;-75
2021/07/16 05:18:15;;;;;;;5.65;5.09;;;;;;;16.34;96.51;99486.06;1996972;78;20815;-74
2021/07/16 05:21:33;;;;;;;8.71;4.81;;;;;;;16.38;96.33;99487.69;1996854;81;20664;-75
2021/07/16 06:37:31;;;;;;;14.49;7.91;;;;;;;18.41;93.00;99550.75;1976131;82;20580;-74
2021/07/16 06:40:35;;;;;;;9.70;7.40;;;;;;;18.48;92.93;99554.00;1977232;82;20624;-74
2021/07/16 06:43:38;;;;;;;12.59;8.63;;;;;;;18.54;92.88;99558.22;1978286;82;20189;-74
2021/07/16 06:46:46;;;;;;;12.68;8.63;;;;;;;18.57;92.54;99553.72;1976172;79;22718;-74
2021/07/16 06:49:49;;;;;;;11.77;7.50;;;;;;;18.63;92.34;99563.19;1974204;82;20210;-74
2021/07/16 06:52:56;;;;;;;11.52;7.24;;;;;;;18.66;92.09;99569.19;1973218;82;20174;-74
2021/07/16 06:55:59;;;;;;;15.49;7.91;;;;;;;18.73;92.17;99561.97;1972827;82;20207;-74
2021/07/16 06:59:04;;;;;;;13.19;7.68;;;;;;;18.79;91.84;99563.53;1972965;82;20912;-74
2021/07/16 07:02:13;;;;;;;13.31;7.49;;;;;;;18.84;91.63;99562.44;1976085;79;21369;-78
2021/07/16 07:05:19;;;;;;;8.43;7.44;;;;;;;18.90;91.06;99558.75;1977783;82;20684;-74
2021/07/16 07:12:44;;;;;;;16.68;7.62;;;;;;;18.94;90.54;99570.88;1978065;82;20304;-75
2021/07/16 07:15:48;;;;;;;13.29;7.66;;;;;;;18.99;90.28;99584.72;1976319;79;21475;-74
2021/07/16 07:18:57;;;;;;;11.02;7.85;;;;;;;18.99;90.08;99589.97;1974998;82;20227;-76
2021/07/16 07:22:26;;;;;;;11.43;8.15;;;;;;;18.97;89.46;99592.66;1972973;82;20198;-76
2021/07/16 07:25:30;;;;;;;12.24;8.25;;;;;;;18.99;89.13;99606.63;1973878;82;20649;-76
2021/07/16 07:28:34;;;;;;;11.80;7.13;;;;;;;18.99;89.29;99605.78;1974146;82;20209;-73
2021/07/16 07:31:37;;;;;;;11.70;7.75;;;;;;;18.96;89.85;99606.75;1971167;79;25817;-74
2021/07/16 07:34:41;;;;;;;10.43;7.41;;;;;;;18.97;90.01;99608.47;1978651;82;20468;-77
2021/07/16 07:37:45;;;;;;;10.91;8.34;;;;;;;18.95;90.16;99609.44;1977346;82;20177;-76
2021/07/16 07:40:49;;;;;;;11.63;7.69;;;;;;;18.96;89.71;99617.28;1978897;82;20197;-77
2021/07/16 07:43:54;;;;;;;11.52;8.68;;;;;;;18.98;89.70;99618.06;1979027;82;20391;-79
2021/07/16 07:46:57;;;;;;;8.45;7.59;;;;;;;19.05;89.88;99623.16;1977779;82;22845;-74
2021/07/16 07:50:06;;;;;;;11.52;7.60;;;;;;;19.09;89.85;99615.06;1978727;82;20322;-77
2021/07/16 07:53:25;;;;;;;11.32;7.66;;;;;;;19.15;90.32;99616.63;1978839;82;20797;-77
2021/07/16 07:56:30;;;;;;;14.64;7.40;;;;;;;19.23;90.53;99612.81;1978564;82;20173;-77
2021/07/16 07:59:34;;;;;;;7.78;6.99;;;;;;;19.36;90.28;99615.84;1978980;82;20648;-78
2021/07/16 08:02:54;;;;;;;8.05;7.01;;;;;;;19.42;89.87;99604.25;1978042;79;23620;-77
2021/07/16 08:06:13;;;;;;;9.24;6.88;;;;;;;19.53;89.51;99607.31;1978580;82;20312;-77
2021/07/16 08:13:29;;;;;;;9.01;6.90;;;;;;;19.79;87.16;99616.91;1979046;82;20203;-78
2021/07/16 08:16:34;;;;;;;8.32;7.00;;;;;;;19.95;86.19;99620.69;1978176;80;21881;-74
2021/07/16 08:19:38;;;;;;;7.44;6.60;;;;;;;20.08;85.94;99619.25;1978058;82;20190;-73
2021/07/16 08:22:42;;;;;;;7.85;6.56;;;;;;;20.23;85.24;99620.44;1978177;82;20193;-72
2021/07/16 08:25:45;;;;;;;8.51;6.24;;;;;;;20.37;83.79;99619.88;1977193;82;20228;-71
2021/07/16 08:28:48;;;;;;;8.68;6.50;;;;;;;20.57;83.53;99622.59;1977912;82;20161;-72
2021/07/16 08:31:52;;;;;;;9.07;6.43;;;;;;;20.79;82.61;99631.31;1976934;79;21506;-72
2021/07/16 08:35:13;;;;;;;5.94;5.44;;;;;;;20.87;79.73;99631.00;1977889;82;20243;-75
2021/07/16 08:38:32;;;;;;;6.78;5.38;;;;;;;20.89;77.12;99628.31;1978098;82;20892;-74
2021/07/16 08:41:37;;;;;;;7.04;5.24;;;;;;;20.98;76.50;99630.53;1977486;82;20197;-72
2021/07/16 08:44:44;;;;;;;8.59;5.19;;;;;;;21.12;75.99;99626.38;1980838;82;20185;-79
2021/07/16 08:47:49;;;;;;;6.39;4.70;;;;;;;21.32;76.95;99633.44;1981041;79;20221;-78
2021/07/16 08:50:52;;;;;;;15.43;10.82;;;;;;;21.46;77.20;99627.56;1982621;82;20170;-79
2021/07/16 08:53:57;;;;;;;6.34;5.76;;;;;;;21.62;77.28;99638.28;1987047;82;20810;-81
2021/07/16 08:57:01;;;;;;;7.97;5.06;;;;;;;21.63;75.53;99638.22;1986197;82;20201;-82
2021/07/16 09:00:07;;;;;;;5.28;4.39;;;;;;;21.64;75.05;99634.66;1985611;82;20198;-81
2021/07/16 09:03:11;;;;;;;5.43;4.43;;;;;;;21.65;75.07;99630.22;1982352;80;23783;-78
2021/07/16 09:06:14;;;;;;;7.26;4.51;;;;;;;21.62;74.71;99630.34;1980260;82;20205;-78
2021/07/16 09:13:59;;;;;;;5.59;3.60;;;;;;;21.54;72.96;99630.69;1964929;82;20297;-78
2021/07/16 09:17:15;;;;;;;4.13;3.70;;;;;;;21.56;72.84;99628.00;1978460;79;22073;-77
2021/07/16 09:20:26;;;;;;;7.78;4.60;;;;;;;21.64;72.64;99629.34;1978872;82;20177;-77
2021/07/16 09:23:47;;;;;;;5.15;4.74;;;;;;;21.72;72.28;99626.34;1978861;82;20420;-77
2021/07/16 09:26:51;;;;;;;4.01;3.71;;;;;;;21.76;71.73;99632.38;1978805;82;20173;-77
2021/07/16 09:29:54;;;;;;;4.55;4.18;;;;;;;21.75;70.86;99635.94;1978063;82;20182;-77
2021/07/16 09:33:09;;;;;;;8.32;4.24;;;;;;;21.73;71.54;99641.31;1977646;80;21699;-77
2021/07/16 09:36:26;;;;;;;3.96;3.59;;;;;;;21.70;72.78;99642.28;1978169;82;20165;-77
2021/07/16 09:39:30;;;;;;;4.26;3.86;;;;;;;21.64;73.75;99641.72;1978097;82;20319;-77
2021/07/16 09:43:20;;;;;;;4.09;3.76;;;;;;;21.51;73.83;99646.69;1977585;82;20592;-78
2021/07/16 09:46:23;;;;;;;3.69;3.39;;;;;;;21.35;72.76;99651.78;1977792;80;21887;-78
2021/07/16 09:49:27;;;;;;;4.45;4.15;;;;;;;21.27;73.26;99650.44;1978764;82;20173;-78
2021/07/16 09:52:36;;;;;;;3.69;3.42;;;;;;;21.24;74.23;99650.53;1980272;82;20757;-78
2021/07/16 09:55:41;;;;;;;4.61;3.53;;;;;;;21.27;74.75;99651.28;1978781;82;20165;-78
2021/07/16 09:58:44;;;;;;;4.45;3.86;;;;;;;21.30;74.23;99648.50;1978921;82;20661;-77
2021/07/16 10:01:49;;;;;;;3.71;3.45;;;;;;;21.36;73.98;99653.53;1978237;79;20697;-77
2021/07/16 10:04:52;;;;;;;5.75;3.71;;;;;;;21.41;72.89;99655.97;1978199;82;20185;-77
2021/07/16 10:12:04;;;;;;;4.56;4.20;;;;;;;21.51;73.38;99666.97;1977242;82;20695;-77
2021/07/16 10:15:10;;;;;;;3.92;3.63;;;;;;;21.47;74.30;99668.03;1978268;82;20216;-77
2021/07/16 10:18:18;;;;;;;4.85;4.40;;;;;;;21.42;73.70;99668.25;1979301;82;20211;-77
2021/07/16 10:21:22;;;;;;;4.86;4.43;;;;;;;21.42;74.08;99668.25;1978428;82;20215;-77
2021/07/16 10:24:27;;;;;;;4.38;3.97;;;;;;;21.40;75.02;99672.75;1979096;82;20224;-77
2021/07/16 10:31:49;;;;;;;4.84;3.79;;;;;;;21.40;75.35;99670.97;1978857;79;20207;-79
2021/07/16 10:35:13;;;;;;;4.99;4.16;;;;;;;21.39;74.93;99666.59;1982341;82;20796;-79
2021/07/16 10:38:35;;;;;;;5.13;4.41;;;;;;;21.39;74.78;99668.41;1982595;82;20181;-80
2021/07/16 10:41:41;;;;;;;4.63;4.30;;;;;;;21.42;75.57;99670.91;1983106;82;20243;-77
2021/07/16 10:44:48;;;;;;;4.88;4.38;;;;;;;21.48;76.03;99675.91;1983416;82;20350;-80
2021/07/16 10:47:51;;;;;;;4.72;4.42;;;;;;;21.59;76.14;99667.50;1983043;79;23638;-79
2021/07/16 10:50:56;;;;;;;4.28;3.97;;;;;;;21.70;75.31;99673.13;1983160;82;20206;-79
2021/07/16 10:54:01;;;;;;;4.80;4.26;;;;;;;21.81;74.68;99665.59;1983199;82;20190;-79
2021/07/16 10:57:12;;;;;;;4.65;4.35;;;;;;;21.93;74.78;99667.69;1982471;82;20552;-79
2021/07/16 11:00:37;;;;;;;5.38;4.19;;;;;;;22.01;73.58;99673.47;1982822;82;20234;-79
2021/07/16 11:03:43;;;;;;;4.30;3.94;;;;;;;22.12;72.65;99669.50;1982647;82;20181;-79
2021/07/16 11:06:51;;;;;;;4.38;3.97;;;;;;;22.28;73.37;99666.06;1982154;82;20193;-79
2021/07/16 11:09:56;;;;;;;4.47;3.97;;;;;;;22.42;71.79;99675.09;1984468;82;20182;-79
2021/07/16 11:13:44;;;;;;;4.24;3.99;;;;;;;22.58;72.16;99676.06;1982755;82;20303;-80
2021/07/16 11:17:04;;;;;;;5.47;4.28;;;;;;;22.83;71.38;99678.41;1981229;80;33645;-79
2021/07/16 11:20:18;;;;;;;4.39;3.94;;;;;;;23.33;70.02;99678.44;1983502;82;20216;-80
2021/07/16 11:23:48;;;;;;;4.20;3.80;;;;;;;23.91;67.62;99674.53;1981958;82;20185;-79
2021/07/16 11:26:53;;;;;;;3.10;2.90;;;;;;;24.19;66.69;99682.66;1983882;82;20177;-80
2021/07/16 11:29:57;;;;;;;3.09;2.89;;;;;;;24.29;63.56;99681.25;1982583;82;20210;-80
2021/07/16 11:33:06;;;;;;;3.15;2.61;;;;;;;24.23;62.96;99676.25;1977173;79;21984;-78
2021/07/16 11:36:18;;;;;;;2.95;2.75;;;;;;;24.37;62.67;99671.06;1979590;82;20272;-80
2021/07/16 11:39:35;;;;;;;3.54;3.24;;;;;;;24.51;61.43;99664.13;1977832;82;20203;-80
2021/07/16 11:42:45;;;;;;;3.42;2.89;;;;;;;24.49;60.85;99666.84;1978446;82;20186;-79
2021/07/16 11:45:53;;;;;;;3.28;2.91;;;;;;;24.54;62.41;99674.56;1974020;79;21064;-78
2021/07/16 11:48:57;;;;;;;2.95;2.75;;;;;;;24.55;62.06;99674.47;1980148;82;20500;-77
2021/07/16 11:52:02;;;;;;;3.55;3.25;;;;;;;24.74;62.44;99674.25;1979593;82;20169;-78
2021/07/16 11:55:14;;;;;;;3.39;3.19;;;;;;;24.78;61.75;99670.50;1978734;82;20181;-77
2021/07/16 11:58:22;;;;;;;3.47;3.21;;;;;;;24.76;61.78;99668.84;1978482;82;20181;-77
2021/07/16 12:01:27;;;;;;;3.05;2.85;;;;;;;24.63;61.79;99664.28;1977587;80;20205;-77
2021/07/16 12:04:33;;;;;;;4.41;2.90;;;;;;;24.41;62.00;99666.41;1980176;82;20201;-79
2021/07/16 12:08:02;;;;;;;3.21;2.97;;;;;;;24.23;62.82;99675.38;1975717;82;20177;-77
2021/07/16 12:11:18;;;;;;;3.19;2.99;;;;;;;24.21;62.86;99675.47;1966515;82;20230;-76
2021/07/16 12:14:22;;;;;;;4.97;2.80;;;;;;;24.39;61.01;99676.28;1967191;82;20383;-77
2021/07/16 12:17:31;;;;;;;2.83;2.63;;;;;;;24.73;61.54;99672.53;1970059;79;22980;-78
2021/07/16 12:20:38;;;;;;;3.00;2.80;;;;;;;25.24;60.68;99678.41;1971774;82;20723;-77
2021/07/16 12:23:49;;;;;;;7.82;2.66;;;;;;;25.53;57.95;99666.88;1971620;82;20197;-76
2021/07/16 12:27:25;;;;;;;5.49;2.54;;;;;;;25.99;58.60;99660.50;1967222;82;20193;-76
2021/07/16 12:30:36;;;;;;;2.30;2.20;;;;;;;26.32;55.18;99674.31;1969735;80;22187;-77
2021/07/16 12:33:41;;;;;;;2.42;2.22;;;;;;;26.56;55.44;99663.03;1970592;82;20376;-77
2021/07/16 12:36:50;;;;;;;2.46;2.26;;;;;;;26.87;56.75;99662.72;1969984;82;20213;-77
2021/07/16 12:41:09;;;;;;;2.09;1.98;;;;;;;26.41;53.30;99667.59;2069149;77;20226;-75
2021/07/16 12:44:17;;;;;;;7.35;1.96;;;;;;;25.81;55.03;99663.38;2061693;78;20389;-76
2021/07/16 12:47:20;;;;;;;2.80;2.14;;;;;;;25.97;56.41;99657.09;2046595;77;24215;-75
2021/07/16 12:50:25;;;;;;;4.64;1.91;;;;;;;26.24;54.50;99663.31;2042081;79;20184;-75
2021/07/16 12:53:31;;;;;;;3.44;2.00;;;;;;;26.37;54.18;99661.59;2042946;79;20209;-76
2021/07/16 12:56:35;;;;;;;2.30;2.10;;;;;;;25.97;54.50;99662.41;2042059;79;20573;-75
2021/07/16 12:59:46;;;;;;;2.35;2.16;;;;;;;25.72;55.48;99666.63;2041262;79;20285;-75
2021/07/16 13:02:51;;;;;;;3.47;2.60;;;;;;;25.54;56.47;99663.28;2046794;76;23540;-75
2021/07/16 13:05:54;;;;;;;2.50;2.33;;;;;;;25.38;57.89;99665.16;2047941;79;20216;-75
2021/07/16 13:13:45;;;;;;;2.85;2.70;;;;;;;25.25;58.90;99669.50;2047443;79;20722;-77
2021/07/16 13:16:49;;;;;;;4.21;2.90;;;;;;;25.21;57.57;99668.84;2044146;76;24599;-76
2021/07/16 13:20:07;;;;;;;3.36;3.06;;;;;;;25.00;58.44;99662.16;2042878;79;20217;-77
2021/07/16 13:23:11;;;;;;;3.36;3.09;;;;;;;24.94;59.13;99665.13;2042238;79;20796;-76
2021/07/16 13:26:16;;;;;;;3.76;2.95;;;;;;;25.02;58.96;99667.38;2042697;79;20630;-77
2021/07/16 13:29:19;;;;;;;3.70;3.30;;;;;;;25.27;59.24;99673.78;2042464;79;20201;-76
2021/07/16 13:32:24;;;;;;;3.58;2.92;;;;;;;25.67;56.89;99673.13;2045546;77;51007;-76
2021/07/16 13:35:27;;;;;;;3.85;3.06;;;;;;;26.05;55.67;99671.63;2047229;79;20640;-75
2021/07/16 13:38:35;;;;;;;3.35;3.09;;;;;;;26.24;55.38;99683.78;2047972;79;20735;-76
2021/07/16 13:41:41;;;;;;;3.61;3.31;;;;;;;25.99;54.15;99690.63;2047432;79;20197;-76
2021/07/16 13:44:44;;;;;;;6.11;3.24;;;;;;;25.67;54.84;99684.63;2047916;79;20655;-76
2021/07/16 13:47:48;;;;;;;3.76;3.53;;;;;;;25.32;55.36;99683.28;2042591;76;22878;-75
2021/07/16 13:50:53;;;;;;;4.57;3.61;;;;;;;25.00;56.74;99683.41;2045410;79;20488;-77
2021/07/16 13:54:00;;;;;;;3.66;3.46;;;;;;;25.32;57.55;99670.00;2043756;79;20250;-76
2021/07/16 13:57:29;;;;;;;4.07;3.78;;;;;;;25.67;57.06;99663.34;2043713;79;21178;-76
2021/07/16 14:00:34;;;;;;;3.55;3.35;;;;;;;25.73;55.34;99671.00;2042273;77;22884;-75
2021/07/16 14:03:38;;;;;;;3.81;3.47;;;;;;;25.77;55.91;99666.34;2044491;79;20244;-76
2021/07/16 14:06:41;;;;;;;4.24;3.44;;;;;;;25.87;55.71;99664.81;2043734;79;20565;-75
2021/07/16 14:09:44;;;;;;;3.89;3.34;;;;;;;26.16;55.01;99669.13;2040645;79;20172;-76
2021/07/16 14:12:49;;;;;;;4.68;3.59;;;;;;;26.26;54.83;99668.56;2043551;79;20228;-75
2021/07/16 14:15:52;;;;;;;4.80;3.97;;;;;;;26.33;54.98;99656.53;2041591;76;21820;-75
2021/07/16 14:19:08;;;;;;;3.65;3.33;;;;;;;26.52;55.45;99659.72;2037862;79;21047;-76
2021/07/16 14:22:12;;;;;;;3.51;3.31;;;;;;;26.53;53.90;99657.94;2037741;79;20165;-77
2021/07/16 14:25:16;;;;;;;3.92;3.55;;;;;;;26.52;53.75;99667.72;2037157;79;20215;-76
2021/07/16 14:28:21;;;;;;;5.78;3.65;;;;;;;26.54;53.50;99667.63;2038178;79;20212;-77
2021/07/16 14:31:30;;;;;;;3.39;3.19;;;;;;;26.56;53.55;99666.56;2040275;76;23577;-77
2021/07/16 14:34:40;;;;;;;3.45;3.15;;;;;;;26.68;53.78;99667.56;2043529;79;20327;-78
2021/07/16 14:37:43;;;;;;;3.67;3.41;;;;;;;26.61;52.38;99679.59;2043989;79;20265;-75
2021/07/16 14:40:59;;;;;;;7.47;3.60;;;;;;;26.50;52.83;99666.97;2027536;79;20292;-77
2021/07/16 14:44:04;;;;;;;3.99;3.46;;;;;;;26.66;53.34;99664.16;2026536;79;20672;-78
2021/07/16 14:47:07;;;;;;;4.10;3.04;;;;;;;26.67;52.29;99673.84;2025826;77;20749;-76
2021/07/16 14:50:16;;;;;;;4.45;3.20;;;;;;;26.72;53.01;99669.06;2026529;79;20174;-77
2021/07/16 14:53:19;;;;;;;4.99;3.14;;;;;;;26.96;54.51;99659.44;2026677;79;20206;-76
2021/07/16 14:56:23;;;;;;;3.84;3.14;;;;;;;27.18;53.85;99666.88;2023921;79;20178;-75
2021/07/16 14:59:27;;;;;;;4.54;3.19;;;;;;;27.33;52.99;99671.16;2026525;79;20584;-76
2021/07/16 15:02:30;;;;;;;3.86;3.56;;;;;;;27.38;51.66;99671.69;2026068;76;20442;-77
2021/07/16 15:06:00;;;;;;;5.34;3.83;;;;;;;27.35;51.69;99687.91;2024571;79;20232;-75
2021/07/16 15:09:25;;;;;;;3.76;3.40;;;;;;;27.36;51.48;99683.41;2026839;79;20750;-76
2021/07/16 15:12:57;;;;;;;4.51;3.25;;;;;;;27.44;52.06;99689.06;2037919;79;20222;-76
2021/07/16 15:16:01;;;;;;;3.51;3.21;;;;;;;27.57;50.71;99702.41;2038986;77;21089;-78
2021/07/16 15:19:06;;;;;;;3.31;3.01;;;;;;;27.50;49.57;99707.34;2043196;79;20311;-76
2021/07/16 15:22:18;;;;;;;3.13;2.92;;;;;;;27.49;49.95;99697.63;2043573;79;20260;-77
2021/07/16 15:25:26;;;;;;;4.40;3.21;;;;;;;27.46;49.40;99700.47;2043370;79;20774;-77
2021/07/16 15:32:47;;;;;;;3.22;3.02;;;;;;;27.40;49.96;99677.75;2036601;76;23850;-77
2021/07/16 15:35:50;;;;;;;4.32;3.01;;;;;;;27.46;50.60;99667.63;2037327;79;20294;-77
2021/07/16 15:38:55;;;;;;;3.38;3.01;;;;;;;27.57;50.90;99675.72;2038108;79;20205;-76
2021/07/16 15:41:59;;;;;;;3.42;3.15;;;;;;;27.63;50.17;99673.50;2038185;79;20165;-77
2021/07/16 15:45:05;;;;;;;3.36;3.16;;;;;;;27.58;50.34;99672.97;2037252;79;20189;-77
2021/07/16 15:48:09;;;;;;;3.13;2.85;;;;;;;27.53;49.90;99660.91;2042635;76;20197;-77
2021/07/16 15:51:12;;;;;;;3.16;2.79;;;;;;;27.46;49.35;99664.94;2043215;79;20920;-77
2021/07/16 15:54:19;;;;;;;3.33;3.08;;;;;;;27.21;49.66;99677.31;2043863;79;20208;-76
2021/07/16 15:57:22;;;;;;;3.14;2.94;;;;;;;26.84;49.63;99670.06;2043280;79;20637;-76
2021/07/16 16:00:26;;;;;;;3.60;3.10;;;;;;;26.88;51.83;99677.75;2042577;76;21359;-76
2021/07/16 16:03:30;;;;;;;3.34;3.14;;;;;;;26.91;51.26;99677.53;2038954;79;20193;-75
2021/07/16 16:06:33;;;;;;;3.70;3.40;;;;;;;26.92;50.99;99673.06;2037792;79;20338;-76
2021/07/16 16:09:45;;;;;;;3.56;3.35;;;;;;;26.96;50.35;99685.25;2037454;79;20184;-75
2021/07/16 16:12:48;;;;;;;6.01;3.21;;;;;;;26.95;50.80;99678.22;2037956;79;20199;-75
2021/07/16 16:15:51;;;;;;;5.69;3.09;;;;;;;27.09;51.24;99680.81;2039036;76;21258;-75
2021/07/16 16:18:54;;;;;;;6.14;3.40;;;;;;;27.25;50.40;99699.28;2044027;79;20176;-75
2021/07/16 16:26:31;;;;;;;4.10;3.19;;;;;;;27.30;49.76;99689.19;2021098;80;20311;-74
2021/07/16 16:29:37;;;;;;;4.11;3.71;;;;;;;27.15;49.71;99701.75;2023172;80;20945;-77
2021/07/16 16:32:41;;;;;;;6.24;3.03;;;;;;;26.71;50.18;99710.00;2026102;77;20865;-76
2021/07/16 16:35:52;;;;;;;5.18;3.59;;;;;;;26.24;50.46;99719.25;2037927;79;20212;-75
2021/07/16 16:39:29;;;;;;;5.95;3.86;;;;;;;25.92;52.05;99723.06;2038308;79;20209;-75
2021/07/16 16:42:32;;;;;;;5.22;3.95;;;;;;;25.62;52.82;99721.31;2037672;79;20169;-75
2021/07/16 16:45:35;;;;;;;4.50;4.10;;;;;;;25.37;52.59;99723.75;2036402;77;24196;-76
2021/07/16 16:48:39;;;;;;;4.71;3.85;;;;;;;25.11;53.30;99718.16;2032644;79;20235;-77
2021/07/16 16:51:42;;;;;;;6.36;4.55;;;;;;;24.88;54.64;99726.59;2032604;79;20689;-76
2021/07/16 16:54:45;;;;;;;4.38;4.06;;;;;;;24.62;54.41;99725.44;2032833;79;20330;-77
2021/07/16 16:57:49;;;;;;;4.94;4.34;;;;;;;24.30;54.81;99729.91;2033413;79;20635;-76